createdAt,value
2019-04-20T00:00:52.953Z,10.90
2019-04-20T00:03:19.439Z,10.90
2019-04-20T00:05:48.929Z,10.90
2019-04-20T00:08:23.403Z,10.90
2019-04-20T00:10:58.293Z,10.90
2019-04-20T00:13:28.584Z,10.80
2019-04-20T00:15:49.593Z,10.80
2019-04-20T00:18:19.183Z,10.80
2019-04-20T00:20:57.578Z,10.80
2019-04-20T00:23:40.535Z,10.70
2019-04-20T00:26:32.239Z,10.70
2019-04-20T00:29:08.950Z,10.60
2019-04-20T00:31:39.159Z,10.60
2019-04-20T00:33:59.469Z,10.60
2019-04-20T00:36:20.182Z,10.50
2019-04-20T00:38:53.611Z,10.50
2019-04-20T00:41:21.233Z,10.40
2019-04-20T00:43:51.130Z,10.40
2019-04-20T00:46:26.257Z,10.30
2019-04-20T00:49:00.838Z,10.30
2019-04-20T00:51:35.254Z,10.20
2019-04-20T00:53:53.839Z,10.20
2019-04-20T00:56:22.386Z,10.20
2019-04-20T00:59:05.735Z,10.10
2019-04-20T01:01:42.273Z,10.10
2019-04-20T01:04:14.841Z,10.10
2019-04-20T01:06:42.593Z,10.10
2019-04-20T01:08:57.100Z,10.10
2019-04-20T01:11:30.918Z,10.00
2019-04-20T01:14:02.973Z,10.00
2019-04-20T01:16:37.514Z,9.90
2019-04-20T01:18:57.575Z,9.90
2019-04-20T01:21:28.786Z,9.90
2019-04-20T01:24:01.508Z,9.90
2019-04-20T01:26:27.736Z,9.90
2019-04-20T01:29:09.972Z,9.80
2019-04-20T01:31:34.548Z,9.80
2019-04-20T01:34:06.256Z,9.70
2019-04-20T01:36:46.183Z,9.70
2019-04-20T01:39:12.488Z,9.60
2019-04-20T01:41:28.675Z,9.60
2019-04-20T01:43:58.554Z,9.50
2019-04-20T01:46:29.957Z,9.50
2019-04-20T01:49:00.725Z,9.50
2019-04-20T01:51:32.394Z,9.40
2019-04-20T01:54:15.931Z,9.40
2019-04-20T01:56:45.945Z,9.30
2019-04-20T01:59:21.455Z,9.30
2019-04-20T02:01:39.325Z,9.30
2019-04-20T02:04:17.191Z,9.30
2019-04-20T02:06:46.433Z,9.20
2019-04-20T02:09:15.684Z,9.20
2019-04-20T02:11:45.170Z,9.20
2019-04-20T02:14:13.784Z,9.10
2019-04-20T02:16:48.086Z,9.10
2019-04-20T02:19:26.704Z,9.00
2019-04-20T02:22:01.257Z,9.00
2019-04-20T02:24:14.861Z,8.90
2019-04-20T02:26:45.087Z,8.90
2019-04-20T02:29:37.357Z,8.90
2019-04-20T02:34:57.723Z,8.80
2019-04-20T02:37:24.579Z,8.80
2019-04-20T02:39:51.435Z,8.80
2019-04-20T02:42:24.895Z,8.80
2019-04-20T02:44:58.754Z,8.80
2019-04-20T02:47:30.719Z,8.80
2019-04-20T02:50:07.445Z,8.70
2019-04-20T02:52:32.700Z,8.70
2019-04-20T03:02:10.238Z,8.70
2019-04-20T03:04:35.053Z,8.60
2019-04-20T03:07:09.453Z,8.60
2019-04-20T03:09:46.913Z,8.60
2019-04-20T03:12:23.747Z,8.60
2019-04-20T03:14:42.283Z,8.50
2019-04-20T03:17:21.140Z,8.50
2019-04-20T03:19:46.494Z,8.50
2019-04-20T03:22:23.385Z,8.50
2019-04-20T03:24:55.410Z,8.40
2019-04-20T03:27:18.350Z,8.40
2019-04-20T03:29:56.717Z,8.30
2019-04-20T03:33:08.481Z,8.30
2019-04-20T03:35:17.428Z,8.30
2019-04-20T03:37:38.021Z,8.30
2019-04-20T03:39:56.757Z,8.20
2019-04-20T03:42:12.886Z,8.20
2019-04-20T03:44:48.945Z,8.20
2019-04-20T03:47:26.690Z,8.20
2019-04-20T03:50:07.371Z,8.20
2019-04-20T03:52:56.274Z,8.30
2019-04-20T03:55:20.001Z,8.50
2019-04-20T03:57:58.733Z,8.70
2019-04-20T04:00:36.237Z,8.90
2019-04-20T04:03:22.818Z,9.10
2019-04-20T04:05:42.293Z,9.30
2019-04-20T04:08:06.249Z,9.70
2019-04-20T04:10:40.922Z,10.10
2019-04-20T04:13:11.790Z,10.10
2019-04-20T04:15:48.758Z,10.40
2019-04-20T04:18:22.991Z,10.60
2019-04-20T04:20:52.187Z,11.10
2019-04-20T04:23:35.609Z,11.40
2019-04-20T04:26:07.045Z,12.00
2019-04-20T04:28:36.784Z,12.60
2019-04-20T04:31:09.434Z,13.20
2019-04-20T04:33:54.120Z,14.10
2019-04-20T04:36:10.524Z,14.80
2019-04-20T04:39:01.211Z,15.40
2019-04-20T04:41:19.958Z,16.40
2019-04-20T04:43:40.118Z,17.30
2019-04-20T04:45:55.395Z,17.70
2019-04-20T04:48:29.999Z,18.30
2019-04-20T04:51:01.256Z,19.00
2019-04-20T04:53:39.608Z,19.10
2019-04-20T04:56:03.975Z,19.50
2019-04-20T04:58:40.532Z,19.70
2019-04-20T05:01:14.784Z,20.70
2019-04-20T05:04:02.816Z,20.30
2019-04-20T05:06:29.198Z,21.10
2019-04-20T05:08:47.451Z,21.20
2019-04-20T05:11:13.282Z,21.70
2019-04-20T05:13:52.288Z,22.40
2019-04-20T05:16:33.779Z,21.40
2019-04-20T05:19:05.134Z,21.70
2019-04-20T05:21:38.879Z,22.10
2019-04-20T05:24:07.609Z,22.60
2019-04-20T05:26:51.197Z,23.00
2019-04-20T05:29:08.505Z,22.80
2019-04-20T05:31:35.712Z,22.70
2019-04-20T05:36:49.340Z,21.90
2019-04-20T05:39:26.933Z,22.40
2019-04-20T05:41:55.154Z,23.30
2019-04-20T05:44:20.963Z,23.80
2019-04-20T05:47:01.055Z,24.20
2019-04-20T05:49:31.196Z,24.10
2019-04-20T05:52:07.802Z,24.40
2019-04-20T05:54:32.540Z,24.40
2019-04-20T05:57:05.161Z,24.60
2019-04-20T05:59:36.708Z,24.80
2019-04-20T06:02:03.624Z,24.90
2019-04-20T06:04:50.574Z,24.90
2019-04-20T06:07:09.185Z,24.60
2019-04-20T06:09:37.449Z,24.50
2019-04-20T06:12:13.073Z,24.50
2019-04-20T06:14:49.755Z,24.30
2019-04-20T06:17:26.509Z,23.70
2019-04-20T06:20:02.309Z,23.30
2019-04-20T06:22:36.516Z,23.50
2019-04-20T06:25:22.763Z,23.20
2019-04-20T06:27:43.534Z,23.70
2019-04-20T06:30:05.986Z,23.30
2019-04-20T06:33:28.541Z,22.90
2019-04-20T06:36:05.459Z,22.70
2019-04-20T06:38:38.065Z,22.60
2019-04-20T06:40:56.604Z,22.80
2019-04-20T06:43:11.346Z,22.90
2019-04-20T06:45:53.435Z,22.70
2019-04-20T06:48:30.798Z,22.40
2019-04-20T06:50:48.349Z,22.00
2019-04-20T06:53:37.004Z,22.00
2019-04-20T06:56:13.931Z,22.00
2019-04-20T06:58:49.580Z,22.30
2019-04-20T07:01:08.931Z,22.60
2019-04-20T07:06:23.041Z,22.40
2019-04-20T07:08:50.650Z,22.80
2019-04-20T07:11:10.793Z,23.30
2019-04-20T07:13:28.565Z,22.90
2019-04-20T07:16:16.268Z,23.10
2019-04-20T07:19:01.169Z,22.70
2019-04-20T07:22:01.876Z,21.90
2019-04-20T07:24:25.160Z,21.80
2019-04-20T07:26:59.177Z,22.40
2019-04-20T07:29:26.028Z,22.50
2019-04-20T07:31:53.644Z,22.70
2019-04-20T07:34:27.812Z,23.00
2019-04-20T07:37:23.616Z,23.30
2019-04-20T07:39:32.878Z,22.70
2019-04-20T07:42:06.421Z,22.70
2019-04-20T07:44:36.269Z,22.50
2019-04-20T07:47:07.651Z,22.30
2019-04-20T07:49:30.147Z,22.70
2019-04-20T07:51:45.420Z,23.20
2019-04-20T07:54:37.453Z,23.10
2019-04-20T07:57:03.832Z,23.30
2019-04-20T07:59:32.819Z,23.40
2019-04-20T08:02:16.260Z,23.30
2019-04-20T08:04:52.448Z,22.30
2019-04-20T08:07:09.184Z,22.90
2019-04-20T08:09:44.182Z,22.50
2019-04-20T08:12:43.219Z,22.40
2019-04-20T08:15:11.852Z,21.90
2019-04-20T08:17:48.488Z,22.00
2019-04-20T08:20:07.606Z,22.10
2019-04-20T08:22:42.116Z,22.10
2019-04-20T08:25:02.124Z,21.90
2019-04-20T08:27:19.772Z,21.70
2019-04-20T08:30:13.409Z,21.60
2019-04-20T08:32:50.586Z,21.90
2019-04-20T08:35:32.022Z,22.20
2019-04-20T08:38:22.138Z,22.60
2019-04-20T08:40:32.026Z,23.30
2019-04-20T08:43:10.704Z,22.80
2019-04-20T08:45:34.626Z,22.70
2019-04-20T08:48:14.047Z,23.10
2019-04-20T08:50:38.275Z,23.10
2019-04-20T08:53:23.154Z,23.10
2019-04-20T08:55:40.063Z,22.90
2019-04-20T08:57:51.462Z,23.00
2019-04-20T09:00:30.905Z,23.30
2019-04-20T09:02:55.561Z,23.20
2019-04-20T09:05:34.780Z,23.40
2019-04-20T09:08:06.828Z,22.90
2019-04-20T09:10:45.494Z,22.30
2019-04-20T09:13:08.414Z,21.90
2019-04-20T09:15:27.707Z,22.00
2019-04-20T09:18:09.293Z,22.30
2019-04-20T09:20:44.582Z,21.80
2019-04-20T09:23:21.386Z,21.70
2019-04-20T09:28:33.187Z,22.30
2019-04-20T09:31:18.083Z,22.30
2019-04-20T09:37:12.919Z,22.70
2019-04-20T09:39:32.630Z,22.50
2019-04-20T09:42:07.113Z,22.20
2019-04-20T09:44:41.896Z,22.00
2019-04-20T09:47:08.278Z,22.40
2019-04-20T09:49:49.270Z,22.30
2019-04-20T09:52:21.145Z,22.30
2019-04-20T09:54:58.030Z,22.20
2019-04-20T09:57:28.328Z,22.30
2019-04-20T09:59:57.641Z,22.00
2019-04-20T10:02:17.854Z,22.10
2019-04-20T10:04:39.868Z,21.80
2019-04-20T10:07:14.234Z,21.60
2019-04-20T10:09:43.613Z,21.80
2019-04-20T10:12:11.171Z,22.00
2019-04-20T10:14:40.719Z,22.20
2019-04-20T10:17:09.822Z,22.50
2019-04-20T10:19:40.987Z,22.80
2019-04-20T10:22:10.760Z,22.70
2019-04-20T10:24:39.690Z,22.40
2019-04-20T10:27:08.704Z,22.00
2019-04-20T10:29:41.625Z,21.80
2019-04-20T10:32:14.537Z,21.70
2019-04-20T10:34:41.527Z,21.90
2019-04-20T10:37:11.920Z,22.10
2019-04-20T10:39:40.760Z,22.50
2019-04-20T10:42:10.089Z,23.00
2019-04-20T10:44:38.993Z,23.00
2019-04-20T10:47:09.075Z,22.90
2019-04-20T10:49:38.467Z,22.30
2019-04-20T10:52:07.680Z,22.30
2019-04-20T10:54:36.570Z,22.40
2019-04-20T10:57:05.801Z,22.20
2019-04-20T10:59:34.883Z,22.20
2019-04-20T11:02:03.683Z,22.00
2019-04-20T11:04:32.735Z,21.80
2019-04-20T11:07:02.825Z,21.40
2019-04-20T11:09:32.454Z,22.00
2019-04-20T11:12:02.204Z,22.10
2019-04-20T11:14:34.536Z,22.30
2019-04-20T11:17:02.589Z,22.50
2019-04-20T11:19:31.677Z,22.60
2019-04-20T11:22:00.346Z,22.50
2019-04-20T11:24:30.173Z,22.70
2019-04-20T11:27:00.426Z,22.40
2019-04-20T11:29:29.317Z,22.60
2019-04-20T11:31:59.413Z,22.40
2019-04-20T11:34:33.404Z,22.10
2019-04-20T11:36:59.267Z,22.30
2019-04-20T11:39:29.258Z,22.40
2019-04-20T11:41:59.512Z,22.20
2019-04-20T11:44:31.239Z,22.10
2019-04-20T11:47:02.873Z,22.20
2019-04-20T11:49:33.279Z,22.50
2019-04-20T11:52:03.510Z,22.60
2019-04-20T11:54:32.675Z,22.60
2019-04-20T11:57:01.637Z,22.50
2019-04-20T11:59:30.578Z,22.30
2019-04-20T12:02:08.238Z,22.10
2019-04-20T12:04:48.891Z,22.20
2019-04-20T12:07:11.019Z,22.00
2019-04-20T12:09:39.979Z,22.20
2019-04-20T12:12:20.278Z,22.50
2019-04-20T12:14:40.842Z,22.30
2019-04-20T12:17:11.352Z,22.20
2019-04-20T12:19:41.761Z,22.20
2019-04-20T12:22:11.847Z,22.10
2019-04-20T12:24:42.258Z,22.00
2019-04-20T12:27:12.454Z,22.00
2019-04-20T12:29:41.531Z,22.00
2019-04-20T12:32:10.788Z,22.00
2019-04-20T12:34:41.291Z,21.80
2019-04-20T12:37:11.219Z,22.00
2019-04-20T12:39:40.337Z,22.10
2019-04-20T12:42:09.617Z,21.90
2019-04-20T12:44:39.683Z,22.00
2019-04-20T12:47:09.890Z,22.00
2019-04-20T12:49:38.710Z,22.20
2019-04-20T12:52:08.414Z,22.10
2019-04-20T12:54:41.257Z,21.90
2019-04-20T12:57:08.898Z,22.00
2019-04-20T12:59:39.182Z,22.00
2019-04-20T13:02:09.211Z,22.10
2019-04-20T13:04:39.469Z,21.80
2019-04-20T13:07:08.497Z,21.70
2019-04-20T13:09:41.775Z,21.60
2019-04-20T13:12:23.942Z,21.40
2019-04-20T13:15:28.780Z,21.30
2019-04-20T13:17:58.929Z,21.30
2019-04-20T13:20:28.074Z,21.40
2019-04-20T13:22:57.269Z,21.50
2019-04-20T13:25:26.307Z,21.50
2019-04-20T13:27:55.293Z,21.50
2019-04-20T13:30:24.287Z,21.40
2019-04-20T13:32:53.974Z,21.00
2019-04-20T13:35:23.176Z,21.00
2019-04-20T13:37:52.062Z,21.20
2019-04-20T13:40:21.825Z,21.20
2019-04-20T13:43:09.900Z,21.30
2019-04-20T13:45:55.132Z,21.30
2019-04-20T13:48:19.367Z,21.20
2019-04-20T13:50:49.961Z,21.30
2019-04-20T13:53:19.231Z,21.10
2019-04-20T13:58:38.169Z,20.80
2019-04-20T14:01:08.836Z,20.90
2019-04-20T14:03:38.738Z,20.80
2019-04-20T14:06:08.902Z,20.70
2019-04-20T14:08:41.510Z,20.70
2019-04-20T14:11:13.445Z,20.80
2019-04-20T14:13:50.096Z,21.00
2019-04-20T14:16:14.256Z,20.90
2019-04-20T14:18:58.694Z,20.90
2019-04-20T14:21:28.208Z,20.70
2019-04-20T14:23:57.190Z,20.70
2019-04-20T14:26:30.768Z,20.80
2019-04-20T14:29:00.826Z,20.80
2019-04-20T14:31:32.162Z,20.90
2019-04-20T14:34:01.046Z,20.80
2019-04-20T14:36:32.840Z,20.70
2019-04-20T14:39:02.405Z,20.70
2019-04-20T14:41:31.194Z,20.70
2019-04-20T14:43:59.971Z,20.60
2019-04-20T14:46:29.533Z,20.50
2019-04-20T14:48:58.851Z,20.50
2019-04-20T14:51:27.882Z,20.50
2019-04-20T14:53:57.003Z,20.30
2019-04-20T14:56:25.658Z,20.30
2019-04-20T14:58:59.737Z,20.30
2019-04-20T15:01:42.799Z,20.20
2019-04-20T15:04:16.831Z,20.10
2019-04-20T15:06:42.612Z,20.20
2019-04-20T15:09:12.742Z,20.20
2019-04-20T15:11:44.293Z,20.20
2019-04-20T15:14:12.251Z,20.10
2019-04-20T15:16:42.553Z,20.10
2019-04-20T15:19:13.746Z,20.10
2019-04-20T15:21:45.363Z,20.10
2019-04-20T15:24:15.379Z,20.10
2019-04-20T15:26:48.655Z,20.20
2019-04-20T15:29:18.188Z,20.20
2019-04-20T15:31:48.168Z,20.20
2019-04-20T15:34:17.330Z,20.10
2019-04-20T15:36:46.206Z,20.10
2019-04-20T15:39:16.935Z,20.00
2019-04-20T15:41:47.254Z,19.90
2019-04-20T15:44:17.510Z,19.80
2019-04-20T15:46:46.467Z,19.80
2019-04-20T15:49:15.859Z,19.70
2019-04-20T15:51:46.038Z,19.70
2019-04-20T15:54:17.878Z,19.60
2019-04-20T15:56:52.776Z,19.60
2019-04-20T15:59:17.039Z,19.60
2019-04-20T16:01:47.425Z,19.60
2019-04-20T16:04:37.627Z,19.60
2019-04-20T16:07:05.437Z,19.50
2019-04-20T16:09:35.807Z,19.50
2019-04-20T16:12:05.001Z,19.40
2019-04-20T16:14:35.398Z,19.40
2019-04-20T16:17:08.361Z,19.40
2019-04-20T16:19:46.164Z,19.30
2019-04-20T16:22:05.975Z,19.20
2019-04-20T16:24:37.604Z,19.10
2019-04-20T16:27:25.423Z,19.00
2019-04-20T16:29:55.489Z,19.00
2019-04-20T16:32:24.800Z,18.90
2019-04-20T16:34:53.994Z,18.80
2019-04-20T16:37:24.455Z,18.70
2019-04-20T16:39:54.647Z,18.70
2019-04-20T16:42:24.412Z,18.60
2019-04-20T16:44:53.612Z,18.60
2019-04-20T16:47:23.968Z,18.50
2019-04-20T16:49:52.952Z,18.50
2019-04-20T16:52:22.814Z,18.40
2019-04-20T16:54:51.964Z,18.40
2019-04-20T16:57:21.459Z,18.30
2019-04-20T16:59:54.022Z,18.20
2019-04-20T17:02:21.572Z,18.10
2019-04-20T17:04:53.608Z,18.00
2019-04-20T17:07:24.935Z,18.00
2019-04-20T17:09:54.071Z,17.90
2019-04-20T17:12:23.893Z,17.80
2019-04-20T17:14:53.691Z,17.80
2019-04-20T17:17:27.349Z,17.70
2019-04-20T17:19:57.566Z,17.60
2019-04-20T17:22:27.565Z,17.50
2019-04-20T17:24:56.694Z,17.50
2019-04-20T17:27:28.780Z,17.40
2019-04-20T17:30:18.311Z,17.40
2019-04-20T17:32:47.279Z,17.30
2019-04-20T17:35:28.690Z,17.20
2019-04-20T17:37:51.629Z,17.20
2019-04-20T17:40:39.825Z,17.10
2019-04-20T17:43:02.401Z,17.10
2019-04-20T17:45:35.082Z,17.10
2019-04-20T17:48:08.863Z,17.10
2019-04-20T17:50:49.279Z,17.00
2019-04-20T17:53:11.312Z,17.00
2019-04-20T17:55:45.385Z,16.90
2019-04-20T17:58:19.051Z,16.90
2019-04-20T18:00:51.488Z,16.80
2019-04-20T18:03:55.363Z,16.80
2019-04-20T18:06:12.733Z,16.70
2019-04-20T18:08:45.533Z,16.70
2019-04-20T18:11:01.867Z,16.70
2019-04-20T18:13:27.589Z,16.70
2019-04-20T18:16:22.244Z,16.60
2019-04-20T18:18:58.340Z,16.50
2019-04-20T18:21:21.431Z,16.50
2019-04-20T18:23:51.854Z,16.50
2019-04-20T18:26:38.335Z,16.40
2019-04-20T18:29:10.669Z,16.40
2019-04-20T18:31:26.260Z,16.40
2019-04-20T18:34:00.747Z,16.40
2019-04-20T18:36:32.151Z,16.40
2019-04-20T18:39:02.641Z,16.30
2019-04-20T18:41:35.384Z,16.30
2019-04-20T18:43:59.094Z,16.20
2019-04-20T18:46:58.716Z,16.20
2019-04-20T18:49:16.495Z,16.10
2019-04-20T18:51:30.015Z,16.10
2019-04-20T18:54:05.625Z,16.00
2019-04-20T18:56:36.125Z,15.90
2019-04-20T18:59:00.939Z,15.90
2019-04-20T19:01:34.198Z,15.80
2019-04-20T19:04:01.580Z,15.80
2019-04-20T19:06:31.768Z,15.70
2019-04-20T19:09:00.889Z,15.70
2019-04-20T19:11:30.811Z,15.60
2019-04-20T19:14:24.950Z,15.60
2019-04-20T19:17:02.038Z,15.60
2019-04-20T19:19:36.742Z,15.50
2019-04-20T19:21:56.733Z,15.40
2019-04-20T19:24:29.299Z,15.40
2019-04-20T19:27:01.529Z,15.30
2019-04-20T19:29:33.034Z,15.30
2019-04-20T19:32:13.344Z,15.30
2019-04-20T19:34:43.237Z,15.20
2019-04-20T19:37:11.847Z,15.20
2019-04-20T19:39:43.621Z,15.20
2019-04-20T19:42:11.549Z,15.10
2019-04-20T19:44:45.142Z,15.10
2019-04-20T19:47:22.718Z,15.00
2019-04-20T19:49:42.190Z,15.00
2019-04-20T19:52:31.030Z,15.00
2019-04-20T19:54:50.127Z,14.90
2019-04-20T19:57:16.274Z,14.90
2019-04-20T19:59:38.740Z,14.80
2019-04-20T20:02:03.520Z,14.80
2019-04-20T20:04:41.435Z,14.70
2019-04-20T20:07:06.885Z,14.60
2019-04-20T20:09:38.602Z,14.60
2019-04-20T20:12:09.328Z,14.60
2019-04-20T20:14:39.763Z,14.50
2019-04-20T20:17:30.090Z,14.50
2019-04-20T20:20:03.791Z,14.40
2019-04-20T20:22:18.145Z,14.40
2019-04-20T20:24:36.898Z,14.30
2019-04-20T20:27:17.151Z,14.30
2019-04-20T20:29:46.654Z,14.20
2019-04-20T20:32:17.840Z,14.20
2019-04-20T20:34:42.222Z,14.20
2019-04-20T20:37:12.376Z,14.20
2019-04-20T20:39:40.415Z,14.10
2019-04-20T20:42:18.889Z,14.10
2019-04-20T20:44:49.848Z,14.10
2019-04-20T20:47:37.264Z,14.10
2019-04-20T20:50:08.293Z,14.00
2019-04-20T20:52:31.864Z,14.00
2019-04-20T20:54:56.423Z,14.00
2019-04-20T20:57:21.902Z,13.90
2019-04-20T20:59:55.224Z,13.90
2019-04-20T21:02:22.408Z,13.90
2019-04-20T21:04:47.902Z,13.80
2019-04-20T21:07:16.679Z,13.70
2019-04-20T21:09:46.098Z,13.80
2019-04-20T21:16:12.063Z,13.70
2019-04-20T21:31:29.716Z,13.60
2019-04-20T21:43:33.421Z,13.40
2019-04-20T21:46:40.905Z,13.40
2019-04-20T21:59:49.126Z,13.20
2019-04-20T22:08:18.193Z,13.10
2019-04-20T22:10:42.816Z,13.00
2019-04-20T22:16:36.367Z,12.90
2019-04-20T22:34:06.588Z,12.60
2019-04-20T22:35:22.581Z,12.60
2019-04-20T22:44:54.289Z,12.50
2019-04-20T22:51:17.817Z,12.50
2019-04-20T22:54:36.307Z,12.40
2019-04-20T22:58:09.824Z,12.30
2019-04-20T23:44:59.277Z,11.90
2019-04-20T23:57:51.523Z,11.80
